Collinston, Utah
Current Conditions -  °F | °C
As of 5:51 AM on Tuesday 21 Oct 2014 (Local Time) from KLGU Reporting Station
Few Clouds Few Clouds  
Wind Chill: 42°   Ceiling: Unl
Heat Index: 46°   Visibility: 10mi
Dew Point: 40°   Wind: 7mph
Humidity: 79%   Direction: 320°NW
Pressure: 29.84"   Gusts: NA
Location:  41.79°N, 112.07°W
Report Text: KLGU 211151Z AUTO 32006KT 10SM FEW095 FEW120 08/04 A2984 RMK AO2 RAE00 SLP070 P0000 60000 T00780044 10111 20056 56011 TSNO
Loading
Personal Weather Stations






























Interactive Weather Map
Tropical Storm Tracking
New forecast layout! Learn more

10-Day Weather Forecast

Advertisements
Track Severe Weather on mobile